createdAt,value
2022-10-31T00:02:21.494Z,12.22
2022-10-31T00:04:55.745Z,12.23
2022-10-31T00:07:29.123Z,12.20
2022-10-31T00:10:02.028Z,12.19
2022-10-31T00:12:36.430Z,12.18
2022-10-31T00:15:09.744Z,12.16
2022-10-31T00:17:43.015Z,12.15
2022-10-31T00:20:17.540Z,12.14
2022-10-31T00:22:50.514Z,12.12
2022-10-31T00:25:23.453Z,12.08
2022-10-31T00:27:57.263Z,12.05
2022-10-31T00:30:31.840Z,12.05
2022-10-31T00:33:06.206Z,12.02
2022-10-31T00:35:40.498Z,12.01
2022-10-31T00:38:13.361Z,11.97
2022-10-31T00:40:46.181Z,11.95
2022-10-31T00:43:19.045Z,11.93
2022-10-31T00:45:52.188Z,11.89
2022-10-31T00:48:25.193Z,11.86
2022-10-31T00:50:59.638Z,11.83
2022-10-31T00:53:35.272Z,11.81
2022-10-31T00:56:08.889Z,11.79
2022-10-31T00:58:41.743Z,11.76
2022-10-31T01:01:14.736Z,11.73
2022-10-31T01:03:47.975Z,11.70
2022-10-31T01:06:22.404Z,11.68
2022-10-31T01:08:55.439Z,11.65
2022-10-31T01:11:28.303Z,11.62
2022-10-31T01:14:01.216Z,11.60
2022-10-31T01:16:34.028Z,11.57
2022-10-31T01:19:06.950Z,11.56
2022-10-31T01:21:41.157Z,11.55
2022-10-31T01:24:16.508Z,11.52
2022-10-31T01:26:49.323Z,11.50
2022-10-31T01:29:22.349Z,11.49
2022-10-31T01:31:55.215Z,11.46
2022-10-31T01:34:28.625Z,11.45
2022-10-31T01:37:02.947Z,11.46
2022-10-31T01:39:35.980Z,11.42
2022-10-31T01:42:17.907Z,11.40
2022-10-31T01:44:53.966Z,11.39
2022-10-31T01:47:34.747Z,11.42
2022-10-31T01:50:14.893Z,11.41
2022-10-31T01:52:51.292Z,11.37
2022-10-31T01:55:31.623Z,11.32
2022-10-31T01:58:09.553Z,11.31
2022-10-31T02:00:47.375Z,11.27
2022-10-31T02:03:22.565Z,11.24
2022-10-31T02:05:57.744Z,11.22
2022-10-31T02:08:35.032Z,11.19
2022-10-31T02:11:09.566Z,11.15
2022-10-31T02:13:43.230Z,11.12
2022-10-31T02:16:16.388Z,11.09
2022-10-31T02:18:49.504Z,11.07
2022-10-31T02:21:31.803Z,11.06
2022-10-31T02:24:36.158Z,11.03
2022-10-31T02:27:19.140Z,11.02
2022-10-31T02:30:13.953Z,11.00
2022-10-31T02:33:16.805Z,10.98
2022-10-31T02:36:12.747Z,10.97
2022-10-31T02:38:56.325Z,10.94
2022-10-31T02:41:38.701Z,10.91
2022-10-31T02:44:17.887Z,10.89
2022-10-31T02:46:52.322Z,10.84
2022-10-31T02:49:33.384Z,10.83
2022-10-31T02:52:16.407Z,10.81
2022-10-31T02:54:50.350Z,10.78
2022-10-31T02:57:27.636Z,10.78
2022-10-31T03:00:04.762Z,10.75
2022-10-31T03:03:03.573Z,10.76
2022-10-31T03:05:52.065Z,10.72
2022-10-31T03:08:32.109Z,10.69
2022-10-31T03:11:07.268Z,10.69
2022-10-31T03:13:46.394Z,10.67
2022-10-31T03:16:25.905Z,10.65
2022-10-31T03:19:02.358Z,10.62
2022-10-31T03:21:42.056Z,10.64
2022-10-31T03:24:16.790Z,10.59
2022-10-31T03:26:58.766Z,10.59
2022-10-31T03:29:35.870Z,10.59
2022-10-31T03:32:11.990Z,10.57
2022-10-31T03:34:47.616Z,10.56
2022-10-31T03:37:25.762Z,10.55
2022-10-31T03:40:01.427Z,10.54
2022-10-31T03:42:36.932Z,10.50
2022-10-31T03:45:15.668Z,10.51
2022-10-31T03:47:51.561Z,10.47
2022-10-31T03:50:29.553Z,10.47
2022-10-31T03:53:10.274Z,10.47
2022-10-31T03:55:50.425Z,10.47
2022-10-31T03:58:28.547Z,10.44
2022-10-31T04:01:04.730Z,10.43
2022-10-31T04:03:40.335Z,10.41
2022-10-31T04:06:17.719Z,10.39
2022-10-31T04:08:56.895Z,10.38
2022-10-31T04:11:33.680Z,10.36
2022-10-31T04:14:07.943Z,10.34
2022-10-31T04:16:43.480Z,10.34
2022-10-31T04:19:16.958Z,10.32
2022-10-31T04:21:49.775Z,10.30
2022-10-31T04:24:24.778Z,10.31
2022-10-31T04:26:57.777Z,10.26
2022-10-31T04:29:30.828Z,10.25
2022-10-31T04:32:03.916Z,10.24
2022-10-31T04:34:36.806Z,10.21
2022-10-31T04:37:09.707Z,10.20
2022-10-31T04:39:43.881Z,10.20
2022-10-31T04:42:17.118Z,10.17
2022-10-31T04:44:50.009Z,10.15
2022-10-31T04:47:23.442Z,10.14
2022-10-31T04:49:56.360Z,10.11
2022-10-31T04:52:29.783Z,10.10
2022-10-31T04:55:04.471Z,10.09
2022-10-31T04:57:42.991Z,10.07
2022-10-31T05:00:18.431Z,10.06
2022-10-31T05:02:54.722Z,10.07
2022-10-31T05:05:30.750Z,10.05
2022-10-31T05:08:03.623Z,10.03
2022-10-31T05:10:45.681Z,10.03
2022-10-31T05:13:18.673Z,10.01
2022-10-31T05:15:51.825Z,9.99
2022-10-31T05:18:25.088Z,10.00
2022-10-31T05:20:58.190Z,9.98
2022-10-31T05:23:31.184Z,9.96
2022-10-31T05:26:08.044Z,9.95
2022-10-31T05:28:40.915Z,9.95
2022-10-31T05:31:13.830Z,9.92
2022-10-31T05:33:46.587Z,9.90
2022-10-31T05:36:21.156Z,9.90
2022-10-31T05:38:53.993Z,9.88
2022-10-31T05:41:29.860Z,9.89
2022-10-31T05:44:03.303Z,9.88
2022-10-31T05:46:36.191Z,9.84
2022-10-31T05:49:09.291Z,9.84
2022-10-31T05:51:42.475Z,9.83
2022-10-31T05:54:16.121Z,9.83
2022-10-31T05:56:50.692Z,9.83
2022-10-31T05:59:23.566Z,9.81
2022-10-31T06:01:56.650Z,9.81
2022-10-31T06:04:29.579Z,9.80
2022-10-31T06:07:02.511Z,9.80
2022-10-31T06:09:35.381Z,9.81
2022-10-31T06:12:10.702Z,9.82
2022-10-31T06:14:43.546Z,9.80
2022-10-31T06:17:16.893Z,9.82
2022-10-31T06:22:28.163Z,9.84
2022-10-31T06:25:01.401Z,9.85
2022-10-31T06:27:35.736Z,9.87
2022-10-31T06:30:10.048Z,9.89
2022-10-31T06:32:42.904Z,9.91
2022-10-31T06:35:15.948Z,9.94
2022-10-31T06:37:56.274Z,9.96
2022-10-31T06:40:29.130Z,10.00
2022-10-31T06:43:03.956Z,10.06
2022-10-31T06:45:36.831Z,10.09
2022-10-31T06:48:18.475Z,10.15
2022-10-31T06:50:53.667Z,10.21
2022-10-31T06:53:30.835Z,10.30
2022-10-31T06:56:03.672Z,10.36
2022-10-31T06:58:41.426Z,10.43
2022-10-31T07:01:14.952Z,10.49
2022-10-31T07:03:49.288Z,10.56
2022-10-31T07:06:25.443Z,10.66
2022-10-31T07:09:01.422Z,10.74
2022-10-31T07:11:35.339Z,10.83
2022-10-31T07:14:12.205Z,10.93
2022-10-31T07:16:46.303Z,11.01
2022-10-31T07:19:26.580Z,11.10
2022-10-31T07:21:59.838Z,11.19
2022-10-31T07:24:33.221Z,11.27
2022-10-31T07:27:07.804Z,11.35
2022-10-31T07:29:44.049Z,11.42
2022-10-31T07:32:18.205Z,11.50
2022-10-31T07:34:53.368Z,11.59
2022-10-31T07:37:30.455Z,11.71
2022-10-31T07:40:06.113Z,11.77
2022-10-31T07:42:39.591Z,11.88
2022-10-31T07:45:16.695Z,11.98
2022-10-31T07:47:51.410Z,12.07
2022-10-31T07:50:27.111Z,12.18
2022-10-31T07:53:03.988Z,12.30
2022-10-31T07:55:38.232Z,12.38
2022-10-31T07:58:13.078Z,12.49
2022-10-31T08:00:52.765Z,12.60
2022-10-31T08:03:26.058Z,12.70
2022-10-31T08:05:59.202Z,12.83
2022-10-31T08:08:36.021Z,12.95
2022-10-31T08:11:11.570Z,13.06
2022-10-31T08:13:44.770Z,13.19
2022-10-31T08:16:21.907Z,13.32
2022-10-31T08:18:56.564Z,13.44
2022-10-31T08:21:30.212Z,13.57
2022-10-31T08:24:03.149Z,13.68
2022-10-31T08:26:36.350Z,13.79
2022-10-31T08:29:09.788Z,13.93
2022-10-31T08:31:44.720Z,14.05
2022-10-31T08:34:17.709Z,14.15
2022-10-31T08:36:51.944Z,14.26
2022-10-31T08:39:24.886Z,14.36
2022-10-31T08:41:59.019Z,14.47
2022-10-31T08:44:31.967Z,14.58
2022-10-31T08:47:06.632Z,14.68
2022-10-31T08:49:39.515Z,14.78
2022-10-31T08:52:14.591Z,14.88
2022-10-31T08:54:49.560Z,14.99
2022-10-31T08:57:23.187Z,15.08
2022-10-31T08:59:56.320Z,15.18
2022-10-31T09:02:34.097Z,15.26
2022-10-31T09:05:07.681Z,15.33
2022-10-31T09:07:46.104Z,15.38
2022-10-31T09:10:19.191Z,15.46
2022-10-31T09:13:01.152Z,15.54
2022-10-31T09:15:37.706Z,15.59
2022-10-31T09:18:13.256Z,15.68
2022-10-31T09:20:49.934Z,15.75
2022-10-31T09:23:24.568Z,15.85
2022-10-31T09:26:03.125Z,15.95
2022-10-31T09:28:36.920Z,16.04
2022-10-31T09:31:10.046Z,16.14
2022-10-31T09:33:49.773Z,16.25
2022-10-31T09:36:25.021Z,16.35
2022-10-31T09:38:57.979Z,16.45
2022-10-31T09:41:44.955Z,16.55
2022-10-31T09:44:48.076Z,16.64
2022-10-31T09:47:40.809Z,16.75
2022-10-31T09:50:21.361Z,16.84
2022-10-31T09:53:06.209Z,16.91
2022-10-31T09:55:45.750Z,17.00
2022-10-31T09:58:22.297Z,17.07
2022-10-31T10:01:01.255Z,17.15
2022-10-31T10:03:39.555Z,17.21
2022-10-31T10:06:16.977Z,17.28
2022-10-31T10:08:50.480Z,17.34
2022-10-31T10:11:42.233Z,17.43
2022-10-31T10:14:25.211Z,17.48
2022-10-31T10:17:15.541Z,17.60
2022-10-31T10:20:05.687Z,17.69
2022-10-31T10:23:00.990Z,17.78
2022-10-31T10:25:40.555Z,17.86
2022-10-31T10:28:30.039Z,17.96
2022-10-31T10:31:09.101Z,18.05
2022-10-31T10:33:46.918Z,18.16
2022-10-31T10:36:26.563Z,18.24
2022-10-31T10:39:04.978Z,18.34
2022-10-31T10:41:46.323Z,18.44
2022-10-31T10:44:20.802Z,18.52
2022-10-31T10:47:19.175Z,18.61
2022-10-31T10:49:53.237Z,18.70
2022-10-31T10:52:42.083Z,18.77
2022-10-31T10:55:32.107Z,18.85
2022-10-31T10:58:08.246Z,18.89
2022-10-31T11:00:43.792Z,18.93
2022-10-31T11:03:17.552Z,18.96
2022-10-31T11:05:53.376Z,19.00
2022-10-31T11:08:27.682Z,19.01
2022-10-31T11:11:05.745Z,19.06
2022-10-31T11:13:39.064Z,19.09
2022-10-31T11:16:14.569Z,19.14
2022-10-31T11:18:49.115Z,19.19
2022-10-31T11:21:26.003Z,19.23
2022-10-31T11:24:05.355Z,19.31
2022-10-31T11:26:41.395Z,19.37
2022-10-31T11:29:17.893Z,19.41
2022-10-31T11:31:54.573Z,19.48
2022-10-31T11:34:33.082Z,19.52
2022-10-31T11:37:15.559Z,19.58
2022-10-31T11:39:54.791Z,19.62
2022-10-31T11:42:32.237Z,19.66
2022-10-31T11:45:14.858Z,19.71
2022-10-31T11:47:55.293Z,19.74
2022-10-31T11:50:37.663Z,19.78
2022-10-31T11:53:17.153Z,19.83
2022-10-31T11:56:02.225Z,19.88
2022-10-31T11:58:36.434Z,19.95
2022-10-31T12:01:26.073Z,20.05
2022-10-31T12:04:08.506Z,20.13
2022-10-31T12:06:43.393Z,20.21
2022-10-31T12:09:22.554Z,20.29
2022-10-31T12:12:11.244Z,20.36
2022-10-31T12:14:57.891Z,20.42
2022-10-31T12:17:38.509Z,20.43
2022-10-31T12:20:23.610Z,20.45
2022-10-31T12:23:05.250Z,20.47
2022-10-31T12:25:46.817Z,20.45
2022-10-31T12:28:46.394Z,20.47
2022-10-31T12:31:45.658Z,20.46
2022-10-31T12:35:03.681Z,20.47
2022-10-31T12:37:55.889Z,20.47
2022-10-31T12:40:46.187Z,20.46
2022-10-31T12:43:31.205Z,20.44
2022-10-31T12:46:06.770Z,20.38
2022-10-31T12:49:10.909Z,20.34
2022-10-31T12:51:53.937Z,20.26
2022-10-31T12:54:48.548Z,20.22
2022-10-31T12:57:32.593Z,20.13
2022-10-31T13:00:12.967Z,20.05
2022-10-31T13:02:51.229Z,19.98
2022-10-31T13:05:33.135Z,19.90
2022-10-31T13:08:10.866Z,19.82
2022-10-31T13:10:48.607Z,19.77
2022-10-31T13:13:27.492Z,19.69
2022-10-31T13:16:07.059Z,19.65
2022-10-31T13:18:45.322Z,19.59
2022-10-31T13:21:24.975Z,19.56
2022-10-31T13:24:01.022Z,19.52
2022-10-31T13:26:39.604Z,19.50
2022-10-31T13:29:20.947Z,19.47
2022-10-31T13:31:54.131Z,19.42
2022-10-31T13:34:31.739Z,19.41
2022-10-31T13:37:16.856Z,19.39
2022-10-31T13:40:14.238Z,19.37
2022-10-31T13:43:05.376Z,19.38
2022-10-31T13:45:38.233Z,19.36
2022-10-31T13:48:22.407Z,19.39
2022-10-31T13:51:00.692Z,19.38
2022-10-31T13:53:45.864Z,19.39
2022-10-31T13:56:24.616Z,19.39
2022-10-31T13:59:20.548Z,19.39
2022-10-31T14:01:56.994Z,19.40
2022-10-31T14:04:38.406Z,19.39
2022-10-31T14:07:13.602Z,19.39
2022-10-31T14:09:56.985Z,19.41
2022-10-31T14:12:34.200Z,19.41
2022-10-31T14:15:17.666Z,19.41
2022-10-31T14:17:53.724Z,19.42
2022-10-31T14:20:35.070Z,19.42
2022-10-31T14:23:33.708Z,19.45
2022-10-31T14:26:21.197Z,19.46
2022-10-31T14:28:55.432Z,19.46
2022-10-31T14:31:38.633Z,19.47
2022-10-31T14:34:25.308Z,19.46
2022-10-31T14:37:12.874Z,19.46
2022-10-31T14:39:57.000Z,19.45
2022-10-31T14:42:44.070Z,19.44
2022-10-31T14:45:41.906Z,19.41
2022-10-31T14:48:32.955Z,19.39
2022-10-31T14:51:14.235Z,19.36
2022-10-31T14:53:50.286Z,19.32
2022-10-31T14:56:26.732Z,19.28
2022-10-31T14:59:04.047Z,19.25
2022-10-31T15:01:40.876Z,19.19
2022-10-31T15:04:23.740Z,19.16
2022-10-31T15:07:04.359Z,19.13
2022-10-31T15:09:38.981Z,19.09
2022-10-31T15:12:26.537Z,19.09
2022-10-31T15:15:13.696Z,19.06
2022-10-31T15:18:07.426Z,19.03
2022-10-31T15:20:47.072Z,19.02
2022-10-31T15:23:25.911Z,18.99
2022-10-31T15:26:02.907Z,18.96
2022-10-31T15:28:36.025Z,18.92
2022-10-31T15:31:17.515Z,18.90
2022-10-31T15:33:53.288Z,18.85
2022-10-31T15:36:29.812Z,18.79
2022-10-31T15:39:03.758Z,18.74
2022-10-31T15:41:41.658Z,18.68
2022-10-31T15:44:17.612Z,18.60
2022-10-31T15:46:56.807Z,18.54
2022-10-31T15:49:36.148Z,18.46
2022-10-31T15:52:14.463Z,18.38
2022-10-31T15:54:52.662Z,18.32
2022-10-31T15:57:27.510Z,18.23
2022-10-31T16:00:00.728Z,18.12
2022-10-31T16:02:33.605Z,18.05
2022-10-31T16:05:20.384Z,17.94
2022-10-31T16:07:56.239Z,17.84
2022-10-31T16:10:30.031Z,17.70
2022-10-31T16:13:04.482Z,17.60
2022-10-31T16:15:37.456Z,17.48
2022-10-31T16:18:14.317Z,17.38
2022-10-31T16:20:53.851Z,17.27
2022-10-31T16:23:28.842Z,17.14
2022-10-31T16:26:07.803Z,17.01
2022-10-31T16:28:42.333Z,16.89
2022-10-31T16:31:19.863Z,16.79
2022-10-31T16:34:05.866Z,16.71
2022-10-31T16:36:42.736Z,16.60
2022-10-31T16:39:15.598Z,16.48
2022-10-31T16:41:54.716Z,16.39
2022-10-31T16:44:28.907Z,16.31
2022-10-31T16:47:15.312Z,16.22
2022-10-31T16:49:51.242Z,16.13
2022-10-31T16:52:25.946Z,16.04
2022-10-31T16:54:59.275Z,15.96
2022-10-31T16:57:34.459Z,15.88
2022-10-31T17:00:08.305Z,15.80
2022-10-31T17:02:43.759Z,15.72
2022-10-31T17:05:22.867Z,15.66
2022-10-31T17:07:59.151Z,15.60
2022-10-31T17:10:32.560Z,15.53
2022-10-31T17:13:09.691Z,15.47
2022-10-31T17:15:46.534Z,15.45
2022-10-31T17:18:24.393Z,15.37
2022-10-31T17:21:02.631Z,15.35
2022-10-31T17:23:38.466Z,15.32
2022-10-31T17:26:15.370Z,15.26
2022-10-31T17:28:49.057Z,15.23
2022-10-31T17:31:24.670Z,15.22
2022-10-31T17:34:02.250Z,15.17
2022-10-31T17:36:40.866Z,15.15
2022-10-31T17:39:16.384Z,15.10
2022-10-31T17:41:52.825Z,15.05
2022-10-31T17:44:27.698Z,14.99
2022-10-31T17:47:01.288Z,14.95
2022-10-31T17:49:34.381Z,14.90
2022-10-31T17:52:07.949Z,14.85
2022-10-31T17:54:42.822Z,14.81
2022-10-31T17:57:16.106Z,14.73
2022-10-31T17:59:48.992Z,14.68
2022-10-31T18:02:22.059Z,14.64
2022-10-31T18:04:57.498Z,14.58
2022-10-31T18:07:30.411Z,14.55
2022-10-31T18:10:05.063Z,14.50
2022-10-31T18:12:38.156Z,14.45
2022-10-31T18:15:11.766Z,14.38
2022-10-31T18:17:45.773Z,14.34
2022-10-31T18:20:18.946Z,14.28
2022-10-31T18:22:52.113Z,14.24
2022-10-31T18:25:31.750Z,14.20
2022-10-31T18:28:07.229Z,14.16
2022-10-31T18:30:41.905Z,14.12
2022-10-31T18:33:16.101Z,14.08
2022-10-31T18:35:48.942Z,14.06
2022-10-31T18:38:24.594Z,14.04
2022-10-31T18:41:01.383Z,14.01
2022-10-31T18:43:37.419Z,14.01
2022-10-31T18:46:17.903Z,14.01
2022-10-31T18:48:51.370Z,13.97
2022-10-31T18:51:24.871Z,13.96
2022-10-31T18:53:59.617Z,13.96
2022-10-31T18:56:33.838Z,13.98
2022-10-31T18:59:06.898Z,13.99
2022-10-31T19:01:41.988Z,14.00
2022-10-31T19:04:16.235Z,14.03
2022-10-31T19:06:49.337Z,14.05
2022-10-31T19:09:22.281Z,14.05
2022-10-31T19:11:56.760Z,14.06
2022-10-31T19:14:30.675Z,14.05
2022-10-31T19:17:03.619Z,14.06
2022-10-31T19:19:38.729Z,14.05
2022-10-31T19:22:11.598Z,14.04
2022-10-31T19:24:44.474Z,14.03
2022-10-31T19:27:21.226Z,14.05
2022-10-31T19:29:54.212Z,14.02
2022-10-31T19:32:27.026Z,14.03
2022-10-31T19:35:00.329Z,14.03
2022-10-31T19:37:33.515Z,14.05
2022-10-31T19:40:10.333Z,14.06
2022-10-31T19:42:44.562Z,14.07
2022-10-31T19:45:17.909Z,14.07
2022-10-31T19:47:50.839Z,14.09
2022-10-31T19:50:24.059Z,14.08
2022-10-31T19:52:57.072Z,14.11
2022-10-31T19:55:32.379Z,14.10
2022-10-31T19:58:06.602Z,14.14
2022-10-31T20:00:40.285Z,14.15
2022-10-31T20:03:15.143Z,14.18
2022-10-31T20:05:50.391Z,14.20
2022-10-31T20:08:23.500Z,14.22
2022-10-31T20:10:57.853Z,14.24
2022-10-31T20:13:33.755Z,14.27
2022-10-31T20:16:09.572Z,14.28
2022-10-31T20:18:43.160Z,14.28
2022-10-31T20:21:18.343Z,14.29
2022-10-31T20:23:55.548Z,14.30
2022-10-31T20:26:30.113Z,14.30
2022-10-31T20:29:07.341Z,14.30
2022-10-31T20:31:42.153Z,14.32
2022-10-31T20:34:15.355Z,14.33
2022-10-31T20:36:49.614Z,14.32
2022-10-31T20:39:23.530Z,14.32
2022-10-31T20:41:56.567Z,14.32
2022-10-31T20:44:30.886Z,14.32
2022-10-31T20:47:04.304Z,14.31
2022-10-31T20:49:37.257Z,14.28
2022-10-31T20:52:10.367Z,14.26
2022-10-31T20:54:46.945Z,14.22
2022-10-31T20:57:19.828Z,14.20
2022-10-31T20:59:59.177Z,14.16
2022-10-31T21:02:33.456Z,14.10
2022-10-31T21:05:08.909Z,14.07
2022-10-31T21:07:43.280Z,14.03
2022-10-31T21:10:16.491Z,14.00
2022-10-31T21:12:49.496Z,13.97
2022-10-31T21:15:23.908Z,13.97
2022-10-31T21:17:58.094Z,13.94
2022-10-31T21:20:30.972Z,13.93
2022-10-31T21:23:04.714Z,13.91
2022-10-31T21:25:40.091Z,13.93
2022-10-31T21:28:13.813Z,13.90
2022-10-31T21:30:50.973Z,13.91
2022-10-31T21:33:23.967Z,13.89
2022-10-31T21:35:56.850Z,13.88
2022-10-31T21:38:30.304Z,13.88
2022-10-31T21:41:06.800Z,13.85
2022-10-31T21:43:41.816Z,13.84
2022-10-31T21:46:21.099Z,13.86
2022-10-31T21:48:55.342Z,13.82
2022-10-31T21:51:29.708Z,13.80
2022-10-31T21:54:20.749Z,13.80
2022-10-31T21:56:53.620Z,13.75
2022-10-31T21:59:26.520Z,13.74
2022-10-31T22:02:03.278Z,13.71
2022-10-31T22:04:36.467Z,13.68
2022-10-31T22:07:10.773Z,13.64
2022-10-31T22:09:47.472Z,13.63
2022-10-31T22:12:24.916Z,13.57
2022-10-31T22:14:57.769Z,13.56
2022-10-31T22:17:32.238Z,13.54
2022-10-31T22:20:05.713Z,13.50
2022-10-31T22:22:38.549Z,13.48
2022-10-31T22:25:11.464Z,13.45
2022-10-31T22:27:44.360Z,13.44
2022-10-31T22:30:17.267Z,13.43
2022-10-31T22:32:51.635Z,13.41
2022-10-31T22:35:24.588Z,13.38
2022-10-31T22:37:57.594Z,13.34
2022-10-31T22:40:30.518Z,13.32
2022-10-31T22:43:03.738Z,13.29
2022-10-31T22:45:37.145Z,13.26
2022-10-31T22:48:11.975Z,13.25
2022-10-31T22:50:44.875Z,13.19
2022-10-31T22:53:17.691Z,13.18
2022-10-31T22:55:51.508Z,13.14
2022-10-31T22:58:24.609Z,13.11
2022-10-31T23:00:57.753Z,13.08
2022-10-31T23:03:32.080Z,13.06
2022-10-31T23:06:06.770Z,13.04
2022-10-31T23:08:39.947Z,13.03
2022-10-31T23:11:21.120Z,13.03
2022-10-31T23:14:16.231Z,13.02
2022-10-31T23:16:53.087Z,13.00
2022-10-31T23:19:29.128Z,13.01
2022-10-31T23:22:05.013Z,12.98
2022-10-31T23:24:40.497Z,12.98
2022-10-31T23:27:14.718Z,12.98
2022-10-31T23:29:50.066Z,12.96
2022-10-31T23:32:39.984Z,12.97
2022-10-31T23:35:16.404Z,12.97
2022-10-31T23:37:50.044Z,12.96
2022-10-31T23:40:27.413Z,12.98
2022-10-31T23:43:01.665Z,12.99
2022-10-31T23:45:34.866Z,13.00
2022-10-31T23:48:07.949Z,13.01
2022-10-31T23:50:42.285Z,13.03
2022-10-31T23:53:15.511Z,13.06
2022-10-31T23:55:48.356Z,13.05
2022-10-31T23:58:21.284Z,13.07
